createdAt,value
2018-12-16T00:03:22.550Z,94.90
2018-12-16T00:08:28.321Z,95.00
2018-12-16T00:13:31.970Z,95.30
2018-12-16T00:18:35.538Z,99.80
2018-12-16T00:23:39.018Z,96.10
2018-12-16T00:28:42.687Z,95.80
2018-12-16T00:33:46.228Z,96.40
2018-12-16T00:38:49.898Z,94.70
2018-12-16T00:43:53.427Z,95.00
2018-12-16T00:48:56.935Z,94.90
2018-12-16T00:54:00.509Z,95.00
2018-12-16T00:59:03.947Z,95.50
2018-12-16T01:04:08.039Z,95.60
2018-12-16T01:09:11.691Z,95.80
2018-12-16T01:14:16.253Z,95.50
2018-12-16T01:19:19.896Z,95.60
2018-12-16T01:24:23.401Z,95.20
2018-12-16T01:29:26.937Z,96.50
2018-12-16T01:34:30.407Z,96.00
2018-12-16T01:39:33.955Z,96.50
2018-12-16T01:44:37.555Z,96.10
2018-12-16T01:49:41.107Z,96.00
2018-12-16T01:54:44.731Z,96.20
2018-12-16T01:59:48.376Z,96.40
2018-12-16T02:04:51.856Z,96.40
2018-12-16T02:09:55.407Z,96.30
2018-12-16T02:14:59.179Z,96.30
2018-12-16T02:20:03.278Z,96.50
2018-12-16T02:25:07.767Z,96.80
2018-12-16T02:35:31.791Z,95.90
2018-12-16T02:40:36.007Z,96.20
2018-12-16T02:45:39.763Z,96.20
2018-12-16T02:50:43.306Z,95.50
2018-12-16T02:55:46.883Z,95.70
2018-12-16T03:00:50.434Z,96.00
2018-12-16T03:05:53.864Z,95.80
2018-12-16T03:10:57.470Z,96.00
2018-12-16T03:16:01.080Z,95.90
2018-12-16T03:21:04.818Z,96.10
2018-12-16T03:26:08.302Z,96.30
2018-12-16T03:31:11.921Z,96.10
2018-12-16T03:36:15.438Z,96.40
2018-12-16T03:41:18.994Z,95.90
2018-12-16T03:46:22.574Z,96.40
2018-12-16T03:51:26.225Z,96.20
2018-12-16T03:56:29.680Z,96.30
2018-12-16T04:01:33.115Z,95.60
2018-12-16T04:06:37.083Z,96.70
2018-12-16T04:11:40.657Z,96.20
2018-12-16T04:16:44.125Z,96.10
2018-12-16T04:21:47.577Z,95.50
2018-12-16T04:26:51.075Z,95.70
2018-12-16T04:31:55.875Z,95.00
2018-12-16T04:36:59.437Z,94.90
2018-12-16T04:42:03.236Z,94.30
2018-12-16T04:47:07.975Z,94.60
2018-12-16T04:52:11.429Z,95.10
2018-12-16T04:57:14.867Z,94.50
2018-12-16T05:02:18.401Z,93.70
2018-12-16T05:07:22.033Z,93.30
2018-12-16T05:12:26.047Z,93.20
2018-12-16T05:17:29.423Z,93.30
2018-12-16T05:22:32.868Z,93.10
2018-12-16T05:27:36.291Z,93.50
2018-12-16T05:32:40.223Z,93.50
2018-12-16T05:37:43.923Z,93.20
2018-12-16T05:42:47.349Z,93.50
2018-12-16T05:47:50.827Z,93.70
2018-12-16T05:52:54.339Z,94.00
2018-12-16T05:57:57.805Z,93.60
2018-12-16T06:03:02.502Z,93.50
2018-12-16T06:08:05.920Z,93.80
2018-12-16T06:13:09.579Z,93.20
2018-12-16T06:18:13.213Z,92.70
2018-12-16T06:23:16.898Z,93.20
2018-12-16T06:28:20.392Z,93.20
2018-12-16T06:33:24.977Z,92.60
2018-12-16T06:38:28.537Z,93.00
2018-12-16T06:43:32.126Z,93.20
2018-12-16T06:48:35.873Z,92.60
2018-12-16T06:53:39.571Z,92.70
2018-12-16T06:58:43.006Z,93.40
2018-12-16T07:03:46.524Z,93.10
2018-12-16T07:08:50.043Z,93.50
2018-12-16T07:13:53.612Z,94.10
2018-12-16T07:18:57.109Z,93.60
2018-12-16T07:24:00.998Z,94.00
2018-12-16T07:29:04.705Z,94.20
2018-12-16T07:34:08.181Z,94.00
2018-12-16T07:39:18.780Z,94.10
2018-12-16T07:44:22.427Z,94.10
2018-12-16T07:49:26.071Z,94.20
2018-12-16T07:54:29.675Z,93.80
2018-12-16T07:59:33.310Z,93.70
2018-12-16T08:04:36.802Z,94.10
2018-12-16T08:09:40.236Z,93.80
2018-12-16T08:14:43.773Z,93.40
2018-12-16T08:19:47.403Z,93.50
2018-12-16T08:24:55.065Z,93.70
2018-12-16T08:29:58.635Z,94.00
2018-12-16T08:35:02.084Z,93.20
2018-12-16T08:40:07.752Z,93.10
2018-12-16T08:45:11.316Z,92.90
2018-12-16T08:50:16.565Z,92.40
2018-12-16T08:55:20.270Z,92.40
2018-12-16T09:00:23.838Z,92.50
2018-12-16T09:05:27.528Z,91.70
2018-12-16T09:10:34.093Z,90.80
2018-12-16T09:15:36.690Z,90.10
2018-12-16T09:20:40.379Z,90.50
2018-12-16T09:25:43.953Z,90.00
2018-12-16T09:30:47.801Z,89.70
2018-12-16T09:35:51.547Z,88.60
2018-12-16T09:40:55.497Z,90.70
2018-12-16T09:45:59.188Z,90.00
2018-12-16T09:51:02.828Z,84.30
2018-12-16T09:56:06.360Z,87.10
2018-12-16T10:01:09.925Z,85.50
2018-12-16T10:06:13.418Z,83.70
2018-12-16T10:11:17.219Z,88.80
2018-12-16T10:16:20.679Z,82.80
2018-12-16T10:21:24.203Z,83.80
2018-12-16T10:26:27.719Z,85.90
2018-12-16T10:31:32.155Z,86.10
2018-12-16T10:36:35.959Z,86.20
2018-12-16T10:41:39.459Z,86.10
2018-12-16T10:46:43.463Z,86.20
2018-12-16T10:51:46.985Z,86.60
2018-12-16T10:56:50.406Z,85.00
2018-12-16T11:01:53.929Z,85.70
2018-12-16T11:06:57.494Z,85.90
2018-12-16T11:12:01.025Z,85.10
2018-12-16T11:17:04.545Z,85.60
2018-12-16T11:22:08.080Z,85.60
2018-12-16T11:27:11.767Z,85.60
2018-12-16T11:32:15.221Z,84.80
2018-12-16T11:37:18.943Z,84.80
2018-12-16T11:42:22.529Z,84.60
2018-12-16T11:47:25.975Z,84.60
2018-12-16T11:52:29.524Z,84.30
2018-12-16T11:57:33.004Z,84.50
2018-12-16T12:02:36.445Z,84.50
2018-12-16T12:07:42.081Z,83.90
2018-12-16T12:12:45.804Z,84.10
2018-12-16T12:17:49.676Z,83.90
2018-12-16T12:22:53.578Z,83.80
2018-12-16T12:27:57.295Z,83.80
2018-12-16T12:33:00.765Z,84.00
2018-12-16T12:38:04.361Z,84.00
2018-12-16T12:43:07.917Z,84.10
2018-12-16T12:48:11.680Z,84.30
2018-12-16T12:53:15.248Z,84.10
2018-12-16T12:58:18.768Z,84.20
2018-12-16T13:03:22.434Z,83.90
2018-12-16T13:08:25.850Z,84.40
2018-12-16T13:13:29.370Z,85.00
2018-12-16T13:18:33.168Z,85.20
2018-12-16T13:23:36.688Z,84.50
2018-12-16T13:28:41.279Z,84.60
2018-12-16T13:33:44.742Z,84.90
2018-12-16T13:38:48.623Z,84.90
2018-12-16T13:43:52.218Z,85.20
2018-12-16T13:48:56.112Z,85.20
2018-12-16T13:53:59.569Z,86.00
2018-12-16T13:59:03.054Z,85.90
2018-12-16T14:04:06.559Z,85.50
2018-12-16T14:09:10.248Z,85.80
2018-12-16T14:14:13.914Z,85.80
2018-12-16T14:19:17.542Z,85.90
2018-12-16T14:24:21.421Z,86.50
2018-12-16T14:29:25.183Z,87.10
2018-12-16T14:34:28.930Z,88.60
2018-12-16T14:39:32.431Z,90.50
2018-12-16T14:44:36.018Z,91.50
2018-12-16T14:49:39.721Z,91.50
2018-12-16T14:54:43.254Z,91.80
2018-12-16T14:59:46.923Z,91.80
2018-12-16T15:04:50.703Z,92.30
2018-12-16T15:09:54.172Z,92.50
2018-12-16T15:14:57.820Z,93.00
2018-12-16T15:20:01.372Z,93.10
2018-12-16T15:25:05.915Z,93.30
2018-12-16T15:30:10.608Z,93.50
2018-12-16T15:35:14.225Z,93.40
2018-12-16T15:40:17.789Z,93.50
2018-12-16T15:45:21.396Z,93.40
2018-12-16T15:50:24.829Z,93.00
2018-12-16T15:55:28.340Z,92.80
2018-12-16T16:00:32.267Z,92.70
2018-12-16T16:05:35.797Z,92.50
2018-12-16T16:10:39.789Z,92.20
2018-12-16T16:15:43.246Z,92.30
2018-12-16T16:20:46.768Z,92.10
2018-12-16T16:25:50.494Z,92.10
2018-12-16T16:30:54.417Z,92.20
2018-12-16T16:35:58.222Z,92.50
2018-12-16T16:41:02.149Z,92.10
2018-12-16T16:46:06.767Z,92.20
2018-12-16T16:51:10.271Z,92.20
2018-12-16T17:01:27.027Z,91.80
2018-12-16T17:06:30.759Z,91.80
2018-12-16T17:11:34.874Z,91.90
2018-12-16T17:16:38.367Z,91.80
2018-12-16T17:21:42.214Z,92.00
2018-12-16T17:26:45.922Z,92.30
2018-12-16T17:31:49.629Z,92.60
2018-12-16T17:36:54.599Z,93.00
2018-12-16T17:41:58.073Z,93.30
2018-12-16T17:47:01.966Z,93.80
2018-12-16T17:52:05.514Z,94.60
2018-12-16T17:57:09.047Z,95.00
2018-12-16T18:02:12.728Z,95.30
2018-12-16T18:07:16.342Z,95.80
2018-12-16T18:12:19.800Z,95.60
2018-12-16T18:17:23.247Z,96.00
2018-12-16T18:22:26.811Z,95.90
2018-12-16T18:27:31.301Z,95.90
2018-12-16T18:32:34.855Z,96.00
2018-12-16T18:37:38.679Z,96.10
2018-12-16T18:42:42.260Z,96.30
2018-12-16T18:47:45.744Z,96.30
2018-12-16T18:52:49.312Z,96.50
2018-12-16T18:57:53.002Z,96.70
2018-12-16T19:02:56.510Z,96.80
2018-12-16T19:08:00.011Z,97.00
2018-12-16T19:13:03.487Z,97.00
2018-12-16T19:18:07.151Z,96.80
2018-12-16T19:23:10.643Z,96.80
2018-12-16T19:28:14.125Z,96.90
2018-12-16T19:33:17.542Z,96.80
2018-12-16T19:38:21.016Z,96.60
2018-12-16T19:43:24.714Z,96.60
2018-12-16T19:48:28.163Z,96.70
2018-12-16T19:53:31.638Z,96.80
2018-12-16T19:58:35.529Z,96.80
2018-12-16T20:03:43.555Z,97.20
2018-12-16T20:08:47.015Z,97.60
2018-12-16T20:13:50.438Z,97.90
2018-12-16T20:18:53.843Z,98.60
2018-12-16T20:23:57.435Z,98.60
2018-12-16T20:29:00.951Z,98.90
2018-12-16T20:34:04.482Z,99.00
2018-12-16T20:39:08.184Z,99.10
2018-12-16T20:44:11.665Z,99.00
2018-12-16T20:49:15.195Z,98.90
2018-12-16T20:54:18.689Z,99.30
2018-12-16T20:59:22.171Z,99.20
2018-12-16T21:04:25.682Z,99.10
2018-12-16T21:09:29.283Z,99.40
2018-12-16T21:14:38.641Z,99.50
2018-12-16T21:19:42.390Z,99.60
2018-12-16T21:24:47.111Z,99.60
2018-12-16T21:29:50.550Z,99.60
2018-12-16T21:34:53.959Z,99.50
2018-12-16T21:39:57.542Z,99.50
2018-12-16T21:45:01.087Z,99.40
2018-12-16T21:50:06.879Z,99.50
2018-12-16T21:55:10.518Z,99.40
2018-12-16T22:00:14.040Z,99.20
2018-12-16T22:05:20.671Z,99.30
2018-12-16T22:10:24.104Z,99.00
2018-12-16T22:15:27.552Z,99.00
2018-12-16T22:20:31.504Z,98.80
2018-12-16T22:25:35.188Z,98.80
2018-12-16T22:30:38.823Z,98.90
2018-12-16T22:35:42.284Z,98.90
2018-12-16T22:40:46.048Z,98.80
2018-12-16T22:45:49.493Z,99.00
2018-12-16T22:50:53.113Z,99.00
2018-12-16T22:55:56.583Z,98.80
2018-12-16T23:01:05.723Z,99.10
2018-12-16T23:06:09.224Z,99.30
2018-12-16T23:11:12.817Z,99.40
2018-12-16T23:16:18.221Z,99.10
2018-12-16T23:21:21.822Z,99.60
2018-12-16T23:26:25.360Z,99.40
2018-12-16T23:31:28.899Z,98.70
2018-12-16T23:36:32.407Z,98.50
2018-12-16T23:41:35.947Z,98.20
2018-12-16T23:46:39.435Z,98.20
2018-12-16T23:51:42.878Z,98.50
2018-12-16T23:56:46.399Z,98.90
